sensor_id;sensor_type;location;lat;lon;timestamp;temperature;humidity
68378;DHT22;55322;48.146;11.516;2022-07-23T00:01:59;23.73;61.39
68378;DHT22;55322;48.146;11.516;2022-07-23T00:04:24;23.70;62.12
68378;DHT22;55322;48.146;11.516;2022-07-23T00:06:49;23.69;61.56
68378;DHT22;55322;48.146;11.516;2022-07-23T00:09:15;23.61;61.50
68378;DHT22;55322;48.146;11.516;2022-07-23T00:11:40;23.60;61.01
68378;DHT22;55322;48.146;11.516;2022-07-23T00:14:05;23.60;60.13
68378;DHT22;55322;48.146;11.516;2022-07-23T00:16:31;23.67;59.03
68378;DHT22;55322;48.146;11.516;2022-07-23T00:18:56;23.69;60.03
68378;DHT22;55322;48.146;11.516;2022-07-23T00:21:21;23.64;59.90
68378;DHT22;55322;48.146;11.516;2022-07-23T00:23:47;23.57;59.47
68378;DHT22;55322;48.146;11.516;2022-07-23T00:26:12;23.61;58.92
68378;DHT22;55322;48.146;11.516;2022-07-23T00:28:37;23.56;59.86
68378;DHT22;55322;48.146;11.516;2022-07-23T00:31:03;23.46;61.18
68378;DHT22;55322;48.146;11.516;2022-07-23T00:33:28;23.36;61.75
68378;DHT22;55322;48.146;11.516;2022-07-23T00:35:53;23.37;60.85
68378;DHT22;55322;48.146;11.516;2022-07-23T00:38:19;23.31;61.01
68378;DHT22;55322;48.146;11.516;2022-07-23T00:40:44;23.23;61.28
68378;DHT22;55322;48.146;11.516;2022-07-23T00:43:09;23.19;62.17
68378;DHT22;55322;48.146;11.516;2022-07-23T00:45:35;23.19;62.22
68378;DHT22;55322;48.146;11.516;2022-07-23T00:48:00;23.17;61.93
68378;DHT22;55322;48.146;11.516;2022-07-23T00:50:26;23.17;62.32
68378;DHT22;55322;48.146;11.516;2022-07-23T00:52:52;23.19;62.52
68378;DHT22;55322;48.146;11.516;2022-07-23T00:55:18;23.20;63.06
68378;DHT22;55322;48.146;11.516;2022-07-23T00:57:43;23.22;61.70
68378;DHT22;55322;48.146;11.516;2022-07-23T01:00:14;23.26;61.44
68378;DHT22;55322;48.146;11.516;2022-07-23T01:02:40;23.24;61.75
68378;DHT22;55322;48.146;11.516;2022-07-23T01:05:06;23.22;61.86
68378;DHT22;55322;48.146;11.516;2022-07-23T01:07:32;23.29;61.93
68378;DHT22;55322;48.146;11.516;2022-07-23T01:09:58;23.26;62.58
68378;DHT22;55322;48.146;11.516;2022-07-23T01:12:24;23.29;63.11
68378;DHT22;55322;48.146;11.516;2022-07-23T01:14:59;23.31;62.90
68378;DHT22;55322;48.146;11.516;2022-07-23T01:17:25;23.36;62.71
68378;DHT22;55322;48.146;11.516;2022-07-23T01:19:51;23.39;62.62
68378;DHT22;55322;48.146;11.516;2022-07-23T01:22:18;23.34;62.82
68378;DHT22;55322;48.146;11.516;2022-07-23T01:24:44;23.34;61.47
68378;DHT22;55322;48.146;11.516;2022-07-23T01:27:09;23.12;61.51
68378;DHT22;55322;48.146;11.516;2022-07-23T01:29:35;22.62;63.82
68378;DHT22;55322;48.146;11.516;2022-07-23T01:32:00;21.64;66.70
68378;DHT22;55322;48.146;11.516;2022-07-23T01:34:26;21.18;68.24
68378;DHT22;55322;48.146;11.516;2022-07-23T01:36:51;20.71;69.71
68378;DHT22;55322;48.146;11.516;2022-07-23T01:39:16;20.54;70.53
68378;DHT22;55322;48.146;11.516;2022-07-23T01:41:41;20.13;71.97
68378;DHT22;55322;48.146;11.516;2022-07-23T01:44:07;19.84;76.02
68378;DHT22;55322;48.146;11.516;2022-07-23T01:46:32;19.39;78.93
68378;DHT22;55322;48.146;11.516;2022-07-23T01:48:58;19.35;82.44
68378;DHT22;55322;48.146;11.516;2022-07-23T01:51:23;19.18;83.13
68378;DHT22;55322;48.146;11.516;2022-07-23T01:53:48;18.98;82.78
68378;DHT22;55322;48.146;11.516;2022-07-23T01:56:14;18.67;84.62
68378;DHT22;55322;48.146;11.516;2022-07-23T01:58:40;18.43;85.56
68378;DHT22;55322;48.146;11.516;2022-07-23T02:01:06;18.31;86.86
68378;DHT22;55322;48.146;11.516;2022-07-23T02:03:31;18.45;87.73
68378;DHT22;55322;48.146;11.516;2022-07-23T02:05:56;18.27;87.14
68378;DHT22;55322;48.146;11.516;2022-07-23T02:08:21;18.13;87.31
68378;DHT22;55322;48.146;11.516;2022-07-23T02:10:47;18.21;88.60
68378;DHT22;55322;48.146;11.516;2022-07-23T02:13:13;18.24;87.70
68378;DHT22;55322;48.146;11.516;2022-07-23T02:15:39;18.10;88.70
68378;DHT22;55322;48.146;11.516;2022-07-23T02:18:04;17.97;88.52
68378;DHT22;55322;48.146;11.516;2022-07-23T02:20:29;17.93;88.65
68378;DHT22;55322;48.146;11.516;2022-07-23T02:22:55;17.82;88.66
68378;DHT22;55322;48.146;11.516;2022-07-23T02:25:20;17.78;89.35
68378;DHT22;55322;48.146;11.516;2022-07-23T02:27:45;17.76;89.48
68378;DHT22;55322;48.146;11.516;2022-07-23T02:30:11;17.69;90.56
68378;DHT22;55322;48.146;11.516;2022-07-23T02:32:36;17.86;91.17
68378;DHT22;55322;48.146;11.516;2022-07-23T02:35:03;17.69;91.98
68378;DHT22;55322;48.146;11.516;2022-07-23T02:37:29;17.80;92.30
68378;DHT22;55322;48.146;11.516;2022-07-23T02:39:54;18.01;93.17
68378;DHT22;55322;48.146;11.516;2022-07-23T02:42:20;17.79;92.25
68378;DHT22;55322;48.146;11.516;2022-07-23T02:44:46;17.63;93.15
68378;DHT22;55322;48.146;11.516;2022-07-23T02:47:11;17.68;92.81
68378;DHT22;55322;48.146;11.516;2022-07-23T02:49:36;17.68;93.15
68378;DHT22;55322;48.146;11.516;2022-07-23T02:52:02;17.66;93.50
68378;DHT22;55322;48.146;11.516;2022-07-23T02:54:27;17.66;93.29
68378;DHT22;55322;48.146;11.516;2022-07-23T02:56:53;17.79;93.51
68378;DHT22;55322;48.146;11.516;2022-07-23T02:59:18;18.07;94.20
68378;DHT22;55322;48.146;11.516;2022-07-23T03:01:44;18.27;91.58
68378;DHT22;55322;48.146;11.516;2022-07-23T03:04:10;18.36;90.26
68378;DHT22;55322;48.146;11.516;2022-07-23T03:06:35;18.33;90.16
68378;DHT22;55322;48.146;11.516;2022-07-23T03:09:02;18.31;90.43
68378;DHT22;55322;48.146;11.516;2022-07-23T03:11:28;18.45;87.54
68378;DHT22;55322;48.146;11.516;2022-07-23T03:13:53;18.41;88.80
68378;DHT22;55322;48.146;11.516;2022-07-23T03:16:18;18.31;90.01
68378;DHT22;55322;48.146;11.516;2022-07-23T03:18:44;18.37;90.04
68378;DHT22;55322;48.146;11.516;2022-07-23T03:21:09;18.45;87.69
68378;DHT22;55322;48.146;11.516;2022-07-23T03:23:34;18.48;89.05
68378;DHT22;55322;48.146;11.516;2022-07-23T03:26:00;18.53;88.49
68378;DHT22;55322;48.146;11.516;2022-07-23T03:28:25;18.51;88.97
68378;DHT22;55322;48.146;11.516;2022-07-23T03:30:50;18.55;87.47
68378;DHT22;55322;48.146;11.516;2022-07-23T03:33:17;18.51;87.57
68378;DHT22;55322;48.146;11.516;2022-07-23T03:35:44;18.53;86.40
68378;DHT22;55322;48.146;11.516;2022-07-23T03:38:09;18.57;86.60
68378;DHT22;55322;48.146;11.516;2022-07-23T03:40:35;18.53;85.69
68378;DHT22;55322;48.146;11.516;2022-07-23T03:43:00;18.72;83.02
68378;DHT22;55322;48.146;11.516;2022-07-23T03:45:25;18.74;84.09
68378;DHT22;55322;48.146;11.516;2022-07-23T03:47:51;18.53;87.87
68378;DHT22;55322;48.146;11.516;2022-07-23T03:50:16;18.33;90.36
68378;DHT22;55322;48.146;11.516;2022-07-23T03:52:42;18.04;92.26
68378;DHT22;55322;48.146;11.516;2022-07-23T03:55:07;17.90;92.79
68378;DHT22;55322;48.146;11.516;2022-07-23T03:57:33;17.79;93.40
68378;DHT22;55322;48.146;11.516;2022-07-23T03:59:58;17.93;91.87
68378;DHT22;55322;48.146;11.516;2022-07-23T04:02:23;18.10;90.03
68378;DHT22;55322;48.146;11.516;2022-07-23T04:04:49;18.26;88.45
68378;DHT22;55322;48.146;11.516;2022-07-23T04:07:14;18.38;88.97
68378;DHT22;55322;48.146;11.516;2022-07-23T04:09:40;18.37;87.27
68378;DHT22;55322;48.146;11.516;2022-07-23T04:12:06;18.48;86.38
68378;DHT22;55322;48.146;11.516;2022-07-23T04:14:32;18.55;86.82
68378;DHT22;55322;48.146;11.516;2022-07-23T04:16:58;18.54;88.04
68378;DHT22;55322;48.146;11.516;2022-07-23T04:19:23;18.63;86.68
68378;DHT22;55322;48.146;11.516;2022-07-23T04:21:49;18.55;87.87
68378;DHT22;55322;48.146;11.516;2022-07-23T04:24:14;18.57;87.82
68378;DHT22;55322;48.146;11.516;2022-07-23T04:26:39;18.48;88.63
68378;DHT22;55322;48.146;11.516;2022-07-23T04:29:05;18.51;87.28
68378;DHT22;55322;48.146;11.516;2022-07-23T04:31:30;18.48;88.48
68378;DHT22;55322;48.146;11.516;2022-07-23T04:33:55;18.51;88.34
68378;DHT22;55322;48.146;11.516;2022-07-23T04:36:21;18.55;86.70
68378;DHT22;55322;48.146;11.516;2022-07-23T04:38:46;18.64;87.40
68378;DHT22;55322;48.146;11.516;2022-07-23T04:41:11;18.60;87.99
68378;DHT22;55322;48.146;11.516;2022-07-23T04:43:36;18.65;86.02
68378;DHT22;55322;48.146;11.516;2022-07-23T04:46:02;18.75;85.65
68378;DHT22;55322;48.146;11.516;2022-07-23T04:48:27;18.84;85.33
68378;DHT22;55322;48.146;11.516;2022-07-23T04:50:52;18.87;84.15
68378;DHT22;55322;48.146;11.516;2022-07-23T04:53:18;18.78;86.91
68378;DHT22;55322;48.146;11.516;2022-07-23T04:55:44;18.84;87.77
68378;DHT22;55322;48.146;11.516;2022-07-23T04:58:10;18.75;86.66
68378;DHT22;55322;48.146;11.516;2022-07-23T05:00:35;18.91;85.37
68378;DHT22;55322;48.146;11.516;2022-07-23T05:03:01;18.92;84.80
68378;DHT22;55322;48.146;11.516;2022-07-23T05:05:26;18.94;86.71
68378;DHT22;55322;48.146;11.516;2022-07-23T05:07:51;18.99;86.07
68378;DHT22;55322;48.146;11.516;2022-07-23T05:10:17;18.99;84.86
68378;DHT22;55322;48.146;11.516;2022-07-23T05:12:42;19.04;84.65
68378;DHT22;55322;48.146;11.516;2022-07-23T05:15:07;19.12;82.19
68378;DHT22;55322;48.146;11.516;2022-07-23T05:17:33;19.18;82.76
68378;DHT22;55322;48.146;11.516;2022-07-23T05:19:58;19.12;83.99
68378;DHT22;55322;48.146;11.516;2022-07-23T05:22:23;19.14;83.31
68378;DHT22;55322;48.146;11.516;2022-07-23T05:24:49;19.20;83.50
68378;DHT22;55322;48.146;11.516;2022-07-23T05:27:14;19.25;81.87
68378;DHT22;55322;48.146;11.516;2022-07-23T05:29:39;19.28;82.87
68378;DHT22;55322;48.146;11.516;2022-07-23T05:32:05;19.25;82.83
68378;DHT22;55322;48.146;11.516;2022-07-23T05:34:30;19.28;81.60
68378;DHT22;55322;48.146;11.516;2022-07-23T05:36:55;19.30;82.83
68378;DHT22;55322;48.146;11.516;2022-07-23T05:39:21;19.39;80.54
68378;DHT22;55322;48.146;11.516;2022-07-23T05:41:46;19.46;80.80
68378;DHT22;55322;48.146;11.516;2022-07-23T05:44:11;19.52;80.12
68378;DHT22;55322;48.146;11.516;2022-07-23T05:46:37;19.60;79.00
68378;DHT22;55322;48.146;11.516;2022-07-23T05:49:02;19.67;78.92
68378;DHT22;55322;48.146;11.516;2022-07-23T05:51:27;19.70;80.85
68378;DHT22;55322;48.146;11.516;2022-07-23T05:53:53;19.70;81.37
68378;DHT22;55322;48.146;11.516;2022-07-23T05:56:18;19.66;81.31
68378;DHT22;55322;48.146;11.516;2022-07-23T05:58:44;19.58;82.70
68378;DHT22;55322;48.146;11.516;2022-07-23T06:01:09;19.58;81.52
68378;DHT22;55322;48.146;11.516;2022-07-23T06:03:37;19.52;82.54
68378;DHT22;55322;48.146;11.516;2022-07-23T06:06:02;19.36;82.44
68378;DHT22;55322;48.146;11.516;2022-07-23T06:08:27;19.53;81.64
68378;DHT22;55322;48.146;11.516;2022-07-23T06:10:53;19.55;81.22
68378;DHT22;55322;48.146;11.516;2022-07-23T06:13:18;19.53;80.41
68378;DHT22;55322;48.146;11.516;2022-07-23T06:15:44;19.60;80.86
68378;DHT22;55322;48.146;11.516;2022-07-23T06:18:09;19.65;80.25
68378;DHT22;55322;48.146;11.516;2022-07-23T06:20:34;19.65;78.24
68378;DHT22;55322;48.146;11.516;2022-07-23T06:23:00;19.77;76.60
68378;DHT22;55322;48.146;11.516;2022-07-23T06:25:25;19.67;79.50
68378;DHT22;55322;48.146;11.516;2022-07-23T06:27:50;19.74;78.35
68378;DHT22;55322;48.146;11.516;2022-07-23T06:30:16;19.91;77.79
68378;DHT22;55322;48.146;11.516;2022-07-23T06:32:42;19.89;81.10
68378;DHT22;55322;48.146;11.516;2022-07-23T06:35:08;19.84;83.16
68378;DHT22;55322;48.146;11.516;2022-07-23T06:37:33;19.91;78.92
68378;DHT22;55322;48.146;11.516;2022-07-23T06:39:58;19.94;79.03
68378;DHT22;55322;48.146;11.516;2022-07-23T06:42:23;19.98;79.76
68378;DHT22;55322;48.146;11.516;2022-07-23T06:44:49;19.97;80.33
68378;DHT22;55322;48.146;11.516;2022-07-23T06:47:14;19.97;80.09
68378;DHT22;55322;48.146;11.516;2022-07-23T06:49:39;19.93;79.55
68378;DHT22;55322;48.146;11.516;2022-07-23T06:52:07;19.96;82.03
68378;DHT22;55322;48.146;11.516;2022-07-23T06:54:32;20.04;79.05
68378;DHT22;55322;48.146;11.516;2022-07-23T06:56:57;20.09;80.62
68378;DHT22;55322;48.146;11.516;2022-07-23T06:59:23;20.11;80.26
68378;DHT22;55322;48.146;11.516;2022-07-23T07:01:48;20.13;79.69
68378;DHT22;55322;48.146;11.516;2022-07-23T07:04:13;20.14;81.78
68378;DHT22;55322;48.146;11.516;2022-07-23T07:06:39;20.16;83.73
68378;DHT22;55322;48.146;11.516;2022-07-23T07:09:04;20.11;82.70
68378;DHT22;55322;48.146;11.516;2022-07-23T07:11:29;19.84;84.25
68378;DHT22;55322;48.146;11.516;2022-07-23T07:13:55;19.79;84.85
68378;DHT22;55322;48.146;11.516;2022-07-23T07:16:20;19.70;85.35
68378;DHT22;55322;48.146;11.516;2022-07-23T07:18:45;19.63;86.44
68378;DHT22;55322;48.146;11.516;2022-07-23T07:21:11;19.59;86.89
68378;DHT22;55322;48.146;11.516;2022-07-23T07:23:36;19.63;86.94
68378;DHT22;55322;48.146;11.516;2022-07-23T07:26:02;19.52;88.32
68378;DHT22;55322;48.146;11.516;2022-07-23T07:28:27;19.50;87.59
68378;DHT22;55322;48.146;11.516;2022-07-23T07:30:52;19.67;88.47
68378;DHT22;55322;48.146;11.516;2022-07-23T07:33:18;19.84;85.62
68378;DHT22;55322;48.146;11.516;2022-07-23T07:35:43;19.94;86.42
68378;DHT22;55322;48.146;11.516;2022-07-23T07:38:08;20.04;86.54
68378;DHT22;55322;48.146;11.516;2022-07-23T07:40:34;20.09;85.63
68378;DHT22;55322;48.146;11.516;2022-07-23T07:42:59;20.09;85.61
68378;DHT22;55322;48.146;11.516;2022-07-23T07:45:25;20.06;84.81
68378;DHT22;55322;48.146;11.516;2022-07-23T07:47:51;20.09;84.18
68378;DHT22;55322;48.146;11.516;2022-07-23T07:50:18;20.17;84.28
68378;DHT22;55322;48.146;11.516;2022-07-23T07:52:43;20.16;83.95
68378;DHT22;55322;48.146;11.516;2022-07-23T07:55:09;20.23;83.92
68378;DHT22;55322;48.146;11.516;2022-07-23T07:57:36;20.28;84.09
68378;DHT22;55322;48.146;11.516;2022-07-23T08:00:01;20.40;83.61
68378;DHT22;55322;48.146;11.516;2022-07-23T08:02:27;20.44;83.05
68378;DHT22;55322;48.146;11.516;2022-07-23T08:04:52;20.41;82.11
68378;DHT22;55322;48.146;11.516;2022-07-23T08:07:18;20.43;82.83
68378;DHT22;55322;48.146;11.516;2022-07-23T08:09:44;20.44;82.58
68378;DHT22;55322;48.146;11.516;2022-07-23T08:12:09;20.44;84.62
68378;DHT22;55322;48.146;11.516;2022-07-23T08:14:35;20.44;83.40
68378;DHT22;55322;48.146;11.516;2022-07-23T08:17:00;20.59;80.85
68378;DHT22;55322;48.146;11.516;2022-07-23T08:19:25;20.59;82.40
68378;DHT22;55322;48.146;11.516;2022-07-23T08:21:50;20.67;82.39
68378;DHT22;55322;48.146;11.516;2022-07-23T08:24:16;20.72;81.91
68378;DHT22;55322;48.146;11.516;2022-07-23T08:26:41;20.75;81.21
68378;DHT22;55322;48.146;11.516;2022-07-23T08:29:07;20.91;80.61
68378;DHT22;55322;48.146;11.516;2022-07-23T08:31:32;20.96;81.51
68378;DHT22;55322;48.146;11.516;2022-07-23T08:33:58;21.12;78.96
68378;DHT22;55322;48.146;11.516;2022-07-23T08:36:24;21.29;78.98
68378;DHT22;55322;48.146;11.516;2022-07-23T08:38:52;21.57;77.93
68378;DHT22;55322;48.146;11.516;2022-07-23T08:41:18;21.76;74.32
68378;DHT22;55322;48.146;11.516;2022-07-23T08:43:44;22.00;74.15
68378;DHT22;55322;48.146;11.516;2022-07-23T08:46:09;22.05;74.43
68378;DHT22;55322;48.146;11.516;2022-07-23T08:48:36;22.24;73.06
68378;DHT22;55322;48.146;11.516;2022-07-23T08:51:03;22.31;74.57
68378;DHT22;55322;48.146;11.516;2022-07-23T08:53:29;22.35;71.91
68378;DHT22;55322;48.146;11.516;2022-07-23T08:55:57;22.31;72.09
68378;DHT22;55322;48.146;11.516;2022-07-23T08:58:23;22.35;72.72
68378;DHT22;55322;48.146;11.516;2022-07-23T09:00:50;22.32;72.73
68378;DHT22;55322;48.146;11.516;2022-07-23T09:05:43;22.17;75.53
68378;DHT22;55322;48.146;11.516;2022-07-23T09:10:58;22.11;75.69
68378;DHT22;55322;48.146;11.516;2022-07-23T09:13:41;22.22;77.57
68378;DHT22;55322;48.146;11.516;2022-07-23T09:16:20;22.34;77.43
68378;DHT22;55322;48.146;11.516;2022-07-23T09:21:24;22.69;75.43
68378;DHT22;55322;48.146;11.516;2022-07-23T09:24:02;23.23;73.83
68378;DHT22;55322;48.146;11.516;2022-07-23T09:26:36;23.96;71.25
68378;DHT22;55322;48.146;11.516;2022-07-23T09:31:58;25.27;68.44
68378;DHT22;55322;48.146;11.516;2022-07-23T09:34:28;25.47;64.89
68378;DHT22;55322;48.146;11.516;2022-07-23T09:37:08;26.25;63.09
68378;DHT22;55322;48.146;11.516;2022-07-23T09:39:33;27.04;61.35
68378;DHT22;55322;48.146;11.516;2022-07-23T09:42:20;26.80;62.14
68378;DHT22;55322;48.146;11.516;2022-07-23T09:44:51;27.65;60.24
68378;DHT22;55322;48.146;11.516;2022-07-23T09:47:17;28.69;55.39
68378;DHT22;55322;48.146;11.516;2022-07-23T09:52:29;29.61;51.57
68378;DHT22;55322;48.146;11.516;2022-07-23T09:54:59;30.04;48.31
68378;DHT22;55322;48.146;11.516;2022-07-23T09:57:26;29.23;48.60
68378;DHT22;55322;48.146;11.516;2022-07-23T09:59:52;29.74;47.84
68378;DHT22;55322;48.146;11.516;2022-07-23T10:02:18;29.17;49.47
68378;DHT22;55322;48.146;11.516;2022-07-23T10:04:43;28.38;49.84
68378;DHT22;55322;48.146;11.516;2022-07-23T10:07:09;28.25;48.92
68378;DHT22;55322;48.146;11.516;2022-07-23T10:09:39;28.06;49.49
68378;DHT22;55322;48.146;11.516;2022-07-23T10:12:09;28.22;50.24
68378;DHT22;55322;48.146;11.516;2022-07-23T10:14:42;28.00;50.87
68378;DHT22;55322;48.146;11.516;2022-07-23T10:17:08;28.55;52.79
68378;DHT22;55322;48.146;11.516;2022-07-23T10:19:33;28.09;51.58
68378;DHT22;55322;48.146;11.516;2022-07-23T10:22:01;29.31;50.97
68378;DHT22;55322;48.146;11.516;2022-07-23T10:24:45;29.80;46.80
68378;DHT22;55322;48.146;11.516;2022-07-23T10:41:35;29.88;46.91
68378;DHT22;55322;48.146;11.516;2022-07-23T10:47:00;28.89;45.79
68378;DHT22;55322;48.146;11.516;2022-07-23T10:49:30;28.65;50.66
68378;DHT22;55322;48.146;11.516;2022-07-23T10:54:43;28.55;49.95
68378;DHT22;55322;48.146;11.516;2022-07-23T10:57:13;28.44;48.09
68378;DHT22;55322;48.146;11.516;2022-07-23T11:02:29;28.66;47.04
68378;DHT22;55322;48.146;11.516;2022-07-23T11:04:59;28.52;49.18
68378;DHT22;55322;48.146;11.516;2022-07-23T11:07:25;28.19;49.56
68378;DHT22;55322;48.146;11.516;2022-07-23T11:09:50;27.91;49.45
68378;DHT22;55322;48.146;11.516;2022-07-23T11:15:06;27.34;50.06
68378;DHT22;55322;48.146;11.516;2022-07-23T11:20:20;27.27;51.31
68378;DHT22;55322;48.146;11.516;2022-07-23T11:22:48;27.26;52.37
68378;DHT22;55322;48.146;11.516;2022-07-23T11:25:32;26.96;52.40
68378;DHT22;55322;48.146;11.516;2022-07-23T11:28:16;26.65;52.31
68378;DHT22;55322;48.146;11.516;2022-07-23T11:30:44;26.69;51.31
68378;DHT22;55322;48.146;11.516;2022-07-23T11:35:41;26.25;53.90
68378;DHT22;55322;48.146;11.516;2022-07-23T11:40:34;26.02;52.19
68378;DHT22;55322;48.146;11.516;2022-07-23T11:43:05;25.90;54.70
68378;DHT22;55322;48.146;11.516;2022-07-23T11:45:35;25.91;53.62
68378;DHT22;55322;48.146;11.516;2022-07-23T11:48:02;25.71;53.52
68378;DHT22;55322;48.146;11.516;2022-07-23T11:50:28;25.78;56.25
68378;DHT22;55322;48.146;11.516;2022-07-23T11:52:54;25.69;55.31
68378;DHT22;55322;48.146;11.516;2022-07-23T11:55:20;25.64;54.58
68378;DHT22;55322;48.146;11.516;2022-07-23T11:57:46;25.64;56.07
68378;DHT22;55322;48.146;11.516;2022-07-23T12:00:13;25.57;56.53
68378;DHT22;55322;48.146;11.516;2022-07-23T12:02:43;25.34;56.74
68378;DHT22;55322;48.146;11.516;2022-07-23T12:05:30;25.33;57.18
68378;DHT22;55322;48.146;11.516;2022-07-23T12:07:56;25.26;56.79
68378;DHT22;55322;48.146;11.516;2022-07-23T12:10:30;25.20;56.73
68378;DHT22;55322;48.146;11.516;2022-07-23T12:13:00;25.31;57.83
68378;DHT22;55322;48.146;11.516;2022-07-23T12:15:28;25.26;57.36
68378;DHT22;55322;48.146;11.516;2022-07-23T12:17:56;25.27;57.84
68378;DHT22;55322;48.146;11.516;2022-07-23T12:20:27;25.16;57.18
68378;DHT22;55322;48.146;11.516;2022-07-23T12:22:59;25.13;58.04
68378;DHT22;55322;48.146;11.516;2022-07-23T12:25:27;24.95;58.26
68378;DHT22;55322;48.146;11.516;2022-07-23T12:28:14;24.97;57.85
68378;DHT22;55322;48.146;11.516;2022-07-23T12:30:45;24.85;58.52
68378;DHT22;55322;48.146;11.516;2022-07-23T12:33:13;24.82;57.10
68378;DHT22;55322;48.146;11.516;2022-07-23T12:35:41;24.79;59.04
68378;DHT22;55322;48.146;11.516;2022-07-23T12:38:09;24.69;58.00
68378;DHT22;55322;48.146;11.516;2022-07-23T12:40:47;24.72;59.16
68378;DHT22;55322;48.146;11.516;2022-07-23T12:48:33;24.72;58.55
68378;DHT22;55322;48.146;11.516;2022-07-23T12:51:14;24.86;60.60
68378;DHT22;55322;48.146;11.516;2022-07-23T12:53:42;24.80;59.46
68378;DHT22;55322;48.146;11.516;2022-07-23T12:56:10;24.86;58.23
68378;DHT22;55322;48.146;11.516;2022-07-23T13:01:23;24.93;59.73
68378;DHT22;55322;48.146;11.516;2022-07-23T13:06:34;25.10;58.03
68378;DHT22;55322;48.146;11.516;2022-07-23T13:09:00;25.12;58.52
68378;DHT22;55322;48.146;11.516;2022-07-23T13:11:26;25.15;57.69
68378;DHT22;55322;48.146;11.516;2022-07-23T13:13:52;25.15;58.75
68378;DHT22;55322;48.146;11.516;2022-07-23T13:16:18;25.19;59.43
68378;DHT22;55322;48.146;11.516;2022-07-23T13:18:43;25.20;59.47
68378;DHT22;55322;48.146;11.516;2022-07-23T13:21:08;25.13;59.50
68378;DHT22;55322;48.146;11.516;2022-07-23T13:23:34;25.07;59.55
68378;DHT22;55322;48.146;11.516;2022-07-23T13:26:00;25.05;58.01
68378;DHT22;55322;48.146;11.516;2022-07-23T13:28:25;24.86;59.28
68378;DHT22;55322;48.146;11.516;2022-07-23T13:30:51;24.86;61.60
68378;DHT22;55322;48.146;11.516;2022-07-23T13:33:21;24.76;58.82
68378;DHT22;55322;48.146;11.516;2022-07-23T13:35:47;24.76;60.00
68378;DHT22;55322;48.146;11.516;2022-07-23T13:38:13;24.87;61.28
68378;DHT22;55322;48.146;11.516;2022-07-23T13:40:42;25.17;59.92
68378;DHT22;55322;48.146;11.516;2022-07-23T13:43:10;25.54;58.73
68378;DHT22;55322;48.146;11.516;2022-07-23T13:45:36;25.73;60.20
68378;DHT22;55322;48.146;11.516;2022-07-23T13:48:03;25.70;59.23
68378;DHT22;55322;48.146;11.516;2022-07-23T13:50:28;25.69;59.34
68378;DHT22;55322;48.146;11.516;2022-07-23T13:52:54;25.53;60.34
68378;DHT22;55322;48.146;11.516;2022-07-23T13:55:19;25.31;60.15
68378;DHT22;55322;48.146;11.516;2022-07-23T13:57:45;25.23;60.42
68378;DHT22;55322;48.146;11.516;2022-07-23T14:00:11;25.00;60.78
68378;DHT22;55322;48.146;11.516;2022-07-23T14:02:38;24.99;60.81
68378;DHT22;55322;48.146;11.516;2022-07-23T14:05:06;24.86;59.68
68378;DHT22;55322;48.146;11.516;2022-07-23T14:07:33;24.79;59.55
68378;DHT22;55322;48.146;11.516;2022-07-23T14:09:58;24.72;61.04
68378;DHT22;55322;48.146;11.516;2022-07-23T14:12:24;24.58;61.31
68378;DHT22;55322;48.146;11.516;2022-07-23T14:14:49;24.61;61.62
68378;DHT22;55322;48.146;11.516;2022-07-23T14:17:14;24.35;61.06
68378;DHT22;55322;48.146;11.516;2022-07-23T14:19:40;24.29;62.47
68378;DHT22;55322;48.146;11.516;2022-07-23T14:22:05;24.38;63.77
68378;DHT22;55322;48.146;11.516;2022-07-23T14:24:31;24.41;61.74
68378;DHT22;55322;48.146;11.516;2022-07-23T14:26:56;24.47;61.85
68378;DHT22;55322;48.146;11.516;2022-07-23T14:29:21;24.52;61.20
68378;DHT22;55322;48.146;11.516;2022-07-23T14:31:47;24.59;61.25
68378;DHT22;55322;48.146;11.516;2022-07-23T14:34:13;24.68;60.72
68378;DHT22;55322;48.146;11.516;2022-07-23T14:36:38;24.77;60.24
68378;DHT22;55322;48.146;11.516;2022-07-23T14:39:04;24.86;60.97
68378;DHT22;55322;48.146;11.516;2022-07-23T14:41:29;24.93;60.32
68378;DHT22;55322;48.146;11.516;2022-07-23T14:43:55;24.89;59.70
68378;DHT22;55322;48.146;11.516;2022-07-23T14:46:21;25.10;60.69
68378;DHT22;55322;48.146;11.516;2022-07-23T14:48:46;25.44;58.71
68378;DHT22;55322;48.146;11.516;2022-07-23T14:51:11;25.66;57.90
68378;DHT22;55322;48.146;11.516;2022-07-23T14:53:37;25.61;56.99
68378;DHT22;55322;48.146;11.516;2022-07-23T14:56:02;25.47;57.91
68378;DHT22;55322;48.146;11.516;2022-07-23T14:58:29;25.37;58.48
68378;DHT22;55322;48.146;11.516;2022-07-23T15:00:54;25.22;58.53
68378;DHT22;55322;48.146;11.516;2022-07-23T15:03:20;25.30;58.21
68378;DHT22;55322;48.146;11.516;2022-07-23T15:05:45;25.23;59.90
68378;DHT22;55322;48.146;11.516;2022-07-23T15:08:10;25.09;59.29
68378;DHT22;55322;48.146;11.516;2022-07-23T15:10:36;25.05;60.50
68378;DHT22;55322;48.146;11.516;2022-07-23T15:13:01;25.07;59.48
68378;DHT22;55322;48.146;11.516;2022-07-23T15:15:26;25.43;60.48
68378;DHT22;55322;48.146;11.516;2022-07-23T15:17:52;25.63;58.02
68378;DHT22;55322;48.146;11.516;2022-07-23T15:20:17;25.75;58.35
68378;DHT22;55322;48.146;11.516;2022-07-23T15:22:43;25.71;58.68
68378;DHT22;55322;48.146;11.516;2022-07-23T15:25:10;25.69;59.91
68378;DHT22;55322;48.146;11.516;2022-07-23T15:27:36;25.67;59.02
68378;DHT22;55322;48.146;11.516;2022-07-23T15:30:01;25.77;58.69
68378;DHT22;55322;48.146;11.516;2022-07-23T15:32:26;25.75;58.37
68378;DHT22;55322;48.146;11.516;2022-07-23T15:34:55;25.84;57.49
68378;DHT22;55322;48.146;11.516;2022-07-23T15:37:21;26.05;57.80
68378;DHT22;55322;48.146;11.516;2022-07-23T15:39:48;26.08;57.30
68378;DHT22;55322;48.146;11.516;2022-07-23T15:42:14;26.18;57.43
68378;DHT22;55322;48.146;11.516;2022-07-23T15:44:39;26.15;57.87
68378;DHT22;55322;48.146;11.516;2022-07-23T15:47:04;26.22;57.77
68378;DHT22;55322;48.146;11.516;2022-07-23T15:49:30;26.17;56.72
68378;DHT22;55322;48.146;11.516;2022-07-23T15:51:55;26.04;56.73
68378;DHT22;55322;48.146;11.516;2022-07-23T15:54:21;26.11;56.71
68378;DHT22;55322;48.146;11.516;2022-07-23T15:56:47;26.09;57.54
68378;DHT22;55322;48.146;11.516;2022-07-23T15:59:12;26.00;58.14
68378;DHT22;55322;48.146;11.516;2022-07-23T16:01:38;25.87;58.45
68378;DHT22;55322;48.146;11.516;2022-07-23T16:04:03;25.66;59.33
68378;DHT22;55322;48.146;11.516;2022-07-23T16:06:31;25.56;59.89
68378;DHT22;55322;48.146;11.516;2022-07-23T16:08:57;25.50;60.22